sensor_id;sensor_type;location;lat;lon;timestamp;temperature;humidity
71367;DHT22;60030;52.274;8.040;2022-09-30T00:00:20;11.00;99.90
71367;DHT22;60030;52.274;8.040;2022-09-30T00:02:48;11.00;99.90
71367;DHT22;60030;52.274;8.040;2022-09-30T00:05:16;10.90;99.90
71367;DHT22;60030;52.274;8.040;2022-09-30T00:07:43;10.90;99.90
71367;DHT22;60030;52.274;8.040;2022-09-30T00:10:10;10.90;99.90
71367;DHT22;60030;52.274;8.040;2022-09-30T00:12:38;10.90;99.90
71367;DHT22;60030;52.274;8.040;2022-09-30T00:15:06;10.90;99.90
71367;DHT22;60030;52.274;8.040;2022-09-30T00:17:34;10.80;99.90
71367;DHT22;60030;52.274;8.040;2022-09-30T00:20:01;10.80;99.90
71367;DHT22;60030;52.274;8.040;2022-09-30T00:22:29;10.80;99.90
71367;DHT22;60030;52.274;8.040;2022-09-30T00:24:56;10.80;99.90
71367;DHT22;60030;52.274;8.040;2022-09-30T00:27:23;10.80;99.90
71367;DHT22;60030;52.274;8.040;2022-09-30T00:29:50;10.80;99.90
71367;DHT22;60030;52.274;8.040;2022-09-30T00:32:18;10.80;99.90
71367;DHT22;60030;52.274;8.040;2022-09-30T00:34:45;10.80;99.90
71367;DHT22;60030;52.274;8.040;2022-09-30T00:37:12;10.70;99.90
71367;DHT22;60030;52.274;8.040;2022-09-30T00:39:43;10.70;99.90
71367;DHT22;60030;52.274;8.040;2022-09-30T00:42:12;10.70;99.90
71367;DHT22;60030;52.274;8.040;2022-09-30T00:44:52;10.70;99.90
71367;DHT22;60030;52.274;8.040;2022-09-30T00:47:38;10.60;99.90
71367;DHT22;60030;52.274;8.040;2022-09-30T00:50:15;10.60;99.90
71367;DHT22;60030;52.274;8.040;2022-09-30T00:52:44;10.60;99.90
71367;DHT22;60030;52.274;8.040;2022-09-30T00:55:24;10.60;99.90
71367;DHT22;60030;52.274;8.040;2022-09-30T00:57:53;10.60;99.90
71367;DHT22;60030;52.274;8.040;2022-09-30T01:00:20;10.60;99.90
71367;DHT22;60030;52.274;8.040;2022-09-30T01:02:48;10.50;99.90
71367;DHT22;60030;52.274;8.040;2022-09-30T01:05:15;10.50;99.90
71367;DHT22;60030;52.274;8.040;2022-09-30T01:07:43;10.50;99.90
71367;DHT22;60030;52.274;8.040;2022-09-30T01:10:10;10.50;99.90
71367;DHT22;60030;52.274;8.040;2022-09-30T01:12:38;10.50;99.90
71367;DHT22;60030;52.274;8.040;2022-09-30T01:15:06;10.40;99.90
71367;DHT22;60030;52.274;8.040;2022-09-30T01:17:40;10.40;99.90
71367;DHT22;60030;52.274;8.040;2022-09-30T01:20:38;10.40;99.90
71367;DHT22;60030;52.274;8.040;2022-09-30T01:23:42;10.40;99.90
71367;DHT22;60030;52.274;8.040;2022-09-30T01:29:56;10.40;99.90
71367;DHT22;60030;52.274;8.040;2022-09-30T01:35:24;10.40;99.90
71367;DHT22;60030;52.274;8.040;2022-09-30T01:38:03;10.40;99.90
71367;DHT22;60030;52.274;8.040;2022-09-30T01:40:39;10.30;99.90
71367;DHT22;60030;52.274;8.040;2022-09-30T01:43:10;10.30;99.90
71367;DHT22;60030;52.274;8.040;2022-09-30T01:45:42;10.30;99.90
71367;DHT22;60030;52.274;8.040;2022-09-30T01:48:16;10.30;99.90
71367;DHT22;60030;52.274;8.040;2022-09-30T01:50:49;10.20;99.90
71367;DHT22;60030;52.274;8.040;2022-09-30T01:53:22;10.30;99.90
71367;DHT22;60030;52.274;8.040;2022-09-30T01:55:54;10.30;99.90
71367;DHT22;60030;52.274;8.040;2022-09-30T01:58:31;10.30;99.90
71367;DHT22;60030;52.274;8.040;2022-09-30T02:01:07;10.20;99.90
71367;DHT22;60030;52.274;8.040;2022-09-30T02:03:40;10.20;99.90
71367;DHT22;60030;52.274;8.040;2022-09-30T02:06:12;10.20;99.90
71367;DHT22;60030;52.274;8.040;2022-09-30T02:08:45;10.20;99.90
71367;DHT22;60030;52.274;8.040;2022-09-30T02:11:16;10.20;99.90
71367;DHT22;60030;52.274;8.040;2022-09-30T02:13:47;10.20;99.90
71367;DHT22;60030;52.274;8.040;2022-09-30T02:16:19;10.20;99.90
71367;DHT22;60030;52.274;8.040;2022-09-30T02:18:52;10.10;99.90
71367;DHT22;60030;52.274;8.040;2022-09-30T02:21:24;10.20;99.90
71367;DHT22;60030;52.274;8.040;2022-09-30T02:23:54;10.10;99.90
71367;DHT22;60030;52.274;8.040;2022-09-30T02:26:27;10.20;99.90
71367;DHT22;60030;52.274;8.040;2022-09-30T02:28:58;10.20;99.90
71367;DHT22;60030;52.274;8.040;2022-09-30T02:31:31;10.10;99.90
71367;DHT22;60030;52.274;8.040;2022-09-30T02:34:04;10.10;99.90
71367;DHT22;60030;52.274;8.040;2022-09-30T02:36:38;10.10;99.90
71367;DHT22;60030;52.274;8.040;2022-09-30T02:39:09;10.10;99.90
71367;DHT22;60030;52.274;8.040;2022-09-30T02:41:40;10.10;99.90
71367;DHT22;60030;52.274;8.040;2022-09-30T02:44:10;10.10;99.90
71367;DHT22;60030;52.274;8.040;2022-09-30T02:46:43;10.10;99.90
71367;DHT22;60030;52.274;8.040;2022-09-30T02:49:19;10.10;99.90
71367;DHT22;60030;52.274;8.040;2022-09-30T02:52:03;10.10;99.90
71367;DHT22;60030;52.274;8.040;2022-09-30T02:54:36;10.10;99.90
71367;DHT22;60030;52.274;8.040;2022-09-30T02:57:13;10.10;99.90
71367;DHT22;60030;52.274;8.040;2022-09-30T02:59:42;10.10;99.90
71367;DHT22;60030;52.274;8.040;2022-09-30T03:02:09;10.10;99.90
71367;DHT22;60030;52.274;8.040;2022-09-30T03:04:39;10.10;99.90
71367;DHT22;60030;52.274;8.040;2022-09-30T03:07:07;10.10;99.90
71367;DHT22;60030;52.274;8.040;2022-09-30T03:09:35;10.10;99.90
71367;DHT22;60030;52.274;8.040;2022-09-30T03:12:10;10.10;99.90
71367;DHT22;60030;52.274;8.040;2022-09-30T03:14:49;10.10;99.90
71367;DHT22;60030;52.274;8.040;2022-09-30T03:17:28;10.10;99.90
71367;DHT22;60030;52.274;8.040;2022-09-30T03:20:12;10.10;99.90
71367;DHT22;60030;52.274;8.040;2022-09-30T03:22:58;10.00;99.90
71367;DHT22;60030;52.274;8.040;2022-09-30T03:25:36;10.00;99.90
71367;DHT22;60030;52.274;8.040;2022-09-30T03:28:14;10.00;99.90
71367;DHT22;60030;52.274;8.040;2022-09-30T03:30:47;10.00;99.90
71367;DHT22;60030;52.274;8.040;2022-09-30T03:33:21;10.00;99.90
71367;DHT22;60030;52.274;8.040;2022-09-30T03:35:58;9.90;99.90
71367;DHT22;60030;52.274;8.040;2022-09-30T03:38:36;9.90;99.90
71367;DHT22;60030;52.274;8.040;2022-09-30T03:41:10;9.90;99.90
71367;DHT22;60030;52.274;8.040;2022-09-30T03:43:43;9.90;99.90
71367;DHT22;60030;52.274;8.040;2022-09-30T03:46:17;9.90;99.90
71367;DHT22;60030;52.274;8.040;2022-09-30T03:48:48;9.90;99.90
71367;DHT22;60030;52.274;8.040;2022-09-30T03:51:17;9.90;99.90
71367;DHT22;60030;52.274;8.040;2022-09-30T03:53:45;9.90;99.90
71367;DHT22;60030;52.274;8.040;2022-09-30T03:56:13;9.80;99.90
71367;DHT22;60030;52.274;8.040;2022-09-30T03:58:42;9.80;99.90
71367;DHT22;60030;52.274;8.040;2022-09-30T04:01:16;9.80;99.90
71367;DHT22;60030;52.274;8.040;2022-09-30T04:03:46;9.70;99.90
71367;DHT22;60030;52.274;8.040;2022-09-30T04:06:13;9.70;99.90
71367;DHT22;60030;52.274;8.040;2022-09-30T04:08:42;9.70;99.90
71367;DHT22;60030;52.274;8.040;2022-09-30T04:11:09;9.70;99.90
71367;DHT22;60030;52.274;8.040;2022-09-30T04:13:37;9.70;99.90
71367;DHT22;60030;52.274;8.040;2022-09-30T04:16:05;9.60;99.90
71367;DHT22;60030;52.274;8.040;2022-09-30T04:18:34;9.60;99.90
71367;DHT22;60030;52.274;8.040;2022-09-30T04:21:05;9.60;99.90
71367;DHT22;60030;52.274;8.040;2022-09-30T04:23:34;9.60;99.90
71367;DHT22;60030;52.274;8.040;2022-09-30T04:26:03;9.60;99.90
71367;DHT22;60030;52.274;8.040;2022-09-30T04:28:30;9.50;99.90
71367;DHT22;60030;52.274;8.040;2022-09-30T04:30:58;9.60;99.90
71367;DHT22;60030;52.274;8.040;2022-09-30T04:33:25;9.50;99.90
71367;DHT22;60030;52.274;8.040;2022-09-30T04:35:53;9.50;99.90
71367;DHT22;60030;52.274;8.040;2022-09-30T04:38:20;9.50;99.90
71367;DHT22;60030;52.274;8.040;2022-09-30T04:40:47;9.40;99.90
71367;DHT22;60030;52.274;8.040;2022-09-30T04:43:16;9.40;99.90
71367;DHT22;60030;52.274;8.040;2022-09-30T04:45:44;9.40;99.90
71367;DHT22;60030;52.274;8.040;2022-09-30T04:48:12;9.40;99.90
71367;DHT22;60030;52.274;8.040;2022-09-30T04:50:39;9.30;99.90
71367;DHT22;60030;52.274;8.040;2022-09-30T04:53:06;9.30;99.90
71367;DHT22;60030;52.274;8.040;2022-09-30T04:55:34;9.30;99.90
71367;DHT22;60030;52.274;8.040;2022-09-30T04:58:01;9.30;99.90
71367;DHT22;60030;52.274;8.040;2022-09-30T05:00:30;9.30;99.90
71367;DHT22;60030;52.274;8.040;2022-09-30T05:02:57;9.30;99.90
71367;DHT22;60030;52.274;8.040;2022-09-30T05:05:24;9.30;99.90
71367;DHT22;60030;52.274;8.040;2022-09-30T05:07:51;9.30;99.90
71367;DHT22;60030;52.274;8.040;2022-09-30T05:10:19;9.20;99.90
71367;DHT22;60030;52.274;8.040;2022-09-30T05:12:46;9.20;99.90
71367;DHT22;60030;52.274;8.040;2022-09-30T05:15:13;9.20;99.90
71367;DHT22;60030;52.274;8.040;2022-09-30T05:17:42;9.20;99.90
71367;DHT22;60030;52.274;8.040;2022-09-30T05:20:09;9.20;99.90
71367;DHT22;60030;52.274;8.040;2022-09-30T05:22:36;9.20;99.90
71367;DHT22;60030;52.274;8.040;2022-09-30T05:25:04;9.10;99.90
71367;DHT22;60030;52.274;8.040;2022-09-30T05:27:32;9.10;99.90
71367;DHT22;60030;52.274;8.040;2022-09-30T05:29:59;9.10;99.90
71367;DHT22;60030;52.274;8.040;2022-09-30T05:32:26;9.10;99.90
71367;DHT22;60030;52.274;8.040;2022-09-30T05:34:54;9.10;99.90
71367;DHT22;60030;52.274;8.040;2022-09-30T05:37:22;9.10;99.90
71367;DHT22;60030;52.274;8.040;2022-09-30T05:39:49;9.10;99.90
71367;DHT22;60030;52.274;8.040;2022-09-30T05:42:16;9.10;99.90
71367;DHT22;60030;52.274;8.040;2022-09-30T05:44:43;9.10;99.90
71367;DHT22;60030;52.274;8.040;2022-09-30T05:47:11;9.10;99.90
71367;DHT22;60030;52.274;8.040;2022-09-30T05:49:38;9.10;99.90
71367;DHT22;60030;52.274;8.040;2022-09-30T05:52:07;9.10;99.90
71367;DHT22;60030;52.274;8.040;2022-09-30T05:54:34;9.10;99.90
71367;DHT22;60030;52.274;8.040;2022-09-30T05:57:01;9.10;99.90
71367;DHT22;60030;52.274;8.040;2022-09-30T05:59:29;9.20;99.90
71367;DHT22;60030;52.274;8.040;2022-09-30T06:01:56;9.10;99.90
71367;DHT22;60030;52.274;8.040;2022-09-30T06:04:23;9.10;99.90
71367;DHT22;60030;52.274;8.040;2022-09-30T06:06:50;9.20;99.90
71367;DHT22;60030;52.274;8.040;2022-09-30T06:09:18;9.20;99.90
71367;DHT22;60030;52.274;8.040;2022-09-30T06:11:45;9.20;99.90
71367;DHT22;60030;52.274;8.040;2022-09-30T06:14:12;9.20;99.90
71367;DHT22;60030;52.274;8.040;2022-09-30T06:16:43;9.20;99.90
71367;DHT22;60030;52.274;8.040;2022-09-30T06:19:10;9.20;99.90
71367;DHT22;60030;52.274;8.040;2022-09-30T06:21:37;9.30;99.90
71367;DHT22;60030;52.274;8.040;2022-09-30T06:24:04;9.30;99.90
71367;DHT22;60030;52.274;8.040;2022-09-30T06:26:38;9.30;99.90
71367;DHT22;60030;52.274;8.040;2022-09-30T06:29:07;9.40;99.90
71367;DHT22;60030;52.274;8.040;2022-09-30T06:31:34;9.40;99.90
71367;DHT22;60030;52.274;8.040;2022-09-30T06:34:01;9.30;99.90
71367;DHT22;60030;52.274;8.040;2022-09-30T06:36:28;9.40;99.90
71367;DHT22;60030;52.274;8.040;2022-09-30T06:38:57;9.40;99.90
71367;DHT22;60030;52.274;8.040;2022-09-30T06:41:24;9.40;99.90
71367;DHT22;60030;52.274;8.040;2022-09-30T06:43:53;9.50;99.90
71367;DHT22;60030;52.274;8.040;2022-09-30T06:46:20;9.50;99.90
71367;DHT22;60030;52.274;8.040;2022-09-30T06:48:48;9.60;99.90
71367;DHT22;60030;52.274;8.040;2022-09-30T06:51:18;9.60;99.90
71367;DHT22;60030;52.274;8.040;2022-09-30T06:53:45;9.70;99.90
71367;DHT22;60030;52.274;8.040;2022-09-30T06:56:12;9.70;99.90
71367;DHT22;60030;52.274;8.040;2022-09-30T06:58:40;9.70;99.90
71367;DHT22;60030;52.274;8.040;2022-09-30T07:01:09;9.80;99.90
71367;DHT22;60030;52.274;8.040;2022-09-30T07:03:41;9.80;99.90
71367;DHT22;60030;52.274;8.040;2022-09-30T07:06:10;9.80;99.90
71367;DHT22;60030;52.274;8.040;2022-09-30T07:08:38;9.90;99.90
71367;DHT22;60030;52.274;8.040;2022-09-30T07:11:07;9.90;99.90
71367;DHT22;60030;52.274;8.040;2022-09-30T07:13:37;10.00;99.90
71367;DHT22;60030;52.274;8.040;2022-09-30T07:16:05;10.00;99.90
71367;DHT22;60030;52.274;8.040;2022-09-30T07:18:34;10.00;99.90
71367;DHT22;60030;52.274;8.040;2022-09-30T07:21:02;10.00;99.90
71367;DHT22;60030;52.274;8.040;2022-09-30T07:23:29;10.10;99.90
71367;DHT22;60030;52.274;8.040;2022-09-30T07:25:58;10.20;99.90
71367;DHT22;60030;52.274;8.040;2022-09-30T07:28:30;10.20;99.90
71367;DHT22;60030;52.274;8.040;2022-09-30T07:31:00;10.30;99.90
71367;DHT22;60030;52.274;8.040;2022-09-30T07:33:28;10.30;99.90
71367;DHT22;60030;52.274;8.040;2022-09-30T07:35:59;10.30;99.90
71367;DHT22;60030;52.274;8.040;2022-09-30T07:38:29;10.40;99.90
71367;DHT22;60030;52.274;8.040;2022-09-30T07:40:58;10.50;99.90
71367;DHT22;60030;52.274;8.040;2022-09-30T07:43:27;10.50;99.90
71367;DHT22;60030;52.274;8.040;2022-09-30T07:46:02;10.50;99.90
71367;DHT22;60030;52.274;8.040;2022-09-30T07:48:29;10.70;99.90
71367;DHT22;60030;52.274;8.040;2022-09-30T07:51:13;10.60;99.90
71367;DHT22;60030;52.274;8.040;2022-09-30T07:53:42;10.70;99.90
71367;DHT22;60030;52.274;8.040;2022-09-30T07:56:10;10.70;99.90
71367;DHT22;60030;52.274;8.040;2022-09-30T07:58:37;10.80;99.90
71367;DHT22;60030;52.274;8.040;2022-09-30T08:01:05;10.80;99.90
71367;DHT22;60030;52.274;8.040;2022-09-30T08:03:33;10.90;99.90
71367;DHT22;60030;52.274;8.040;2022-09-30T08:06:04;11.00;99.90
71367;DHT22;60030;52.274;8.040;2022-09-30T08:08:33;11.00;99.90
71367;DHT22;60030;52.274;8.040;2022-09-30T08:11:00;11.10;99.90
71367;DHT22;60030;52.274;8.040;2022-09-30T08:13:28;11.10;99.90
71367;DHT22;60030;52.274;8.040;2022-09-30T08:15:55;11.30;99.90
71367;DHT22;60030;52.274;8.040;2022-09-30T08:18:22;11.40;99.90
71367;DHT22;60030;52.274;8.040;2022-09-30T08:20:49;11.30;99.90
71367;DHT22;60030;52.274;8.040;2022-09-30T08:23:16;11.30;99.90
71367;DHT22;60030;52.274;8.040;2022-09-30T08:25:45;11.40;99.90
71367;DHT22;60030;52.274;8.040;2022-09-30T08:28:12;11.40;99.90
71367;DHT22;60030;52.274;8.040;2022-09-30T08:30:40;11.40;99.90
71367;DHT22;60030;52.274;8.040;2022-09-30T08:33:07;11.50;99.90
71367;DHT22;60030;52.274;8.040;2022-09-30T08:35:35;11.60;99.90
71367;DHT22;60030;52.274;8.040;2022-09-30T08:38:02;11.60;99.90
71367;DHT22;60030;52.274;8.040;2022-09-30T08:40:31;11.70;99.90
71367;DHT22;60030;52.274;8.040;2022-09-30T08:43:09;11.80;99.90
71367;DHT22;60030;52.274;8.040;2022-09-30T08:45:46;11.80;99.90
71367;DHT22;60030;52.274;8.040;2022-09-30T08:48:25;11.90;99.90
71367;DHT22;60030;52.274;8.040;2022-09-30T08:51:03;12.00;99.90
71367;DHT22;60030;52.274;8.040;2022-09-30T08:53:36;12.00;99.90
71367;DHT22;60030;52.274;8.040;2022-09-30T08:56:06;12.00;99.90
71367;DHT22;60030;52.274;8.040;2022-09-30T08:58:38;12.10;99.90
71367;DHT22;60030;52.274;8.040;2022-09-30T09:01:15;12.20;99.90
71367;DHT22;60030;52.274;8.040;2022-09-30T09:03:43;12.20;99.90
71367;DHT22;60030;52.274;8.040;2022-09-30T09:06:19;12.20;99.90
71367;DHT22;60030;52.274;8.040;2022-09-30T09:09:07;12.30;99.90
71367;DHT22;60030;52.274;8.040;2022-09-30T09:11:51;12.30;99.90
71367;DHT22;60030;52.274;8.040;2022-09-30T09:14:30;12.40;99.90
71367;DHT22;60030;52.274;8.040;2022-09-30T09:17:08;12.50;99.90
71367;DHT22;60030;52.274;8.040;2022-09-30T09:19:41;12.60;99.90
71367;DHT22;60030;52.274;8.040;2022-09-30T09:22:09;12.60;99.90
71367;DHT22;60030;52.274;8.040;2022-09-30T09:24:39;12.70;99.90
71367;DHT22;60030;52.274;8.040;2022-09-30T09:27:17;12.70;99.90
71367;DHT22;60030;52.274;8.040;2022-09-30T09:29:57;12.80;99.90
71367;DHT22;60030;52.274;8.040;2022-09-30T09:32:26;12.90;99.90
71367;DHT22;60030;52.274;8.040;2022-09-30T09:34:57;13.00;99.90
71367;DHT22;60030;52.274;8.040;2022-09-30T09:37:31;12.90;99.90
71367;DHT22;60030;52.274;8.040;2022-09-30T09:40:25;12.90;99.90
71367;DHT22;60030;52.274;8.040;2022-09-30T09:43:07;13.00;99.90
71367;DHT22;60030;52.274;8.040;2022-09-30T09:45:43;13.10;99.90
71367;DHT22;60030;52.274;8.040;2022-09-30T09:48:14;13.20;99.90
71367;DHT22;60030;52.274;8.040;2022-09-30T09:50:50;13.30;99.90
71367;DHT22;60030;52.274;8.040;2022-09-30T09:53:33;13.30;99.90
71367;DHT22;60030;52.274;8.040;2022-09-30T09:56:13;13.40;99.90
71367;DHT22;60030;52.274;8.040;2022-09-30T09:59:05;13.50;99.90
71367;DHT22;60030;52.274;8.040;2022-09-30T10:01:37;13.70;99.90
71367;DHT22;60030;52.274;8.040;2022-09-30T10:04:10;13.70;99.90
71367;DHT22;60030;52.274;8.040;2022-09-30T10:06:43;13.70;99.90
71367;DHT22;60030;52.274;8.040;2022-09-30T10:09:25;13.80;99.90
71367;DHT22;60030;52.274;8.040;2022-09-30T10:12:26;13.70;99.90
71367;DHT22;60030;52.274;8.040;2022-09-30T10:15:11;13.80;99.90
71367;DHT22;60030;52.274;8.040;2022-09-30T10:17:42;14.00;99.90
71367;DHT22;60030;52.274;8.040;2022-09-30T10:20:20;14.20;99.90
71367;DHT22;60030;52.274;8.040;2022-09-30T10:22:48;14.20;99.90
71367;DHT22;60030;52.274;8.040;2022-09-30T10:25:19;14.40;99.90
71367;DHT22;60030;52.274;8.040;2022-09-30T10:27:50;14.60;99.90
71367;DHT22;60030;52.274;8.040;2022-09-30T10:30:40;14.70;99.90
71367;DHT22;60030;52.274;8.040;2022-09-30T10:33:18;14.80;99.90
71367;DHT22;60030;52.274;8.040;2022-09-30T10:35:59;14.90;99.90
71367;DHT22;60030;52.274;8.040;2022-09-30T10:38:27;14.90;99.90
71367;DHT22;60030;52.274;8.040;2022-09-30T10:40:57;15.00;99.90
71367;DHT22;60030;52.274;8.040;2022-09-30T10:43:28;15.10;99.90
71367;DHT22;60030;52.274;8.040;2022-09-30T10:45:57;15.10;99.90
71367;DHT22;60030;52.274;8.040;2022-09-30T10:48:33;15.10;99.90
71367;DHT22;60030;52.274;8.040;2022-09-30T10:51:01;15.50;99.90
71367;DHT22;60030;52.274;8.040;2022-09-30T10:53:31;15.60;99.90
71367;DHT22;60030;52.274;8.040;2022-09-30T10:55:59;15.80;99.90
71367;DHT22;60030;52.274;8.040;2022-09-30T10:58:43;15.90;99.90
71367;DHT22;60030;52.274;8.040;2022-09-30T11:01:18;16.10;99.90
71367;DHT22;60030;52.274;8.040;2022-09-30T11:03:57;16.00;99.90
71367;DHT22;60030;52.274;8.040;2022-09-30T11:06:29;16.00;99.90
71367;DHT22;60030;52.274;8.040;2022-09-30T11:09:01;16.20;99.90
71367;DHT22;60030;52.274;8.040;2022-09-30T11:11:34;16.20;99.90
71367;DHT22;60030;52.274;8.040;2022-09-30T11:14:18;16.50;99.90
71367;DHT22;60030;52.274;8.040;2022-09-30T11:16:50;16.70;99.90
71367;DHT22;60030;52.274;8.040;2022-09-30T11:19:22;16.80;99.90
71367;DHT22;60030;52.274;8.040;2022-09-30T11:21:55;16.90;99.90
71367;DHT22;60030;52.274;8.040;2022-09-30T11:24:27;17.00;99.90
71367;DHT22;60030;52.274;8.040;2022-09-30T11:27:03;17.00;99.90
71367;DHT22;60030;52.274;8.040;2022-09-30T11:29:46;17.10;99.90
71367;DHT22;60030;52.274;8.040;2022-09-30T11:32:27;17.20;99.90
71367;DHT22;60030;52.274;8.040;2022-09-30T11:35:07;17.60;99.90
71367;DHT22;60030;52.274;8.040;2022-09-30T11:37:48;17.70;99.90
71367;DHT22;60030;52.274;8.040;2022-09-30T11:40:29;17.60;99.90
71367;DHT22;60030;52.274;8.040;2022-09-30T11:43:02;17.70;99.90
71367;DHT22;60030;52.274;8.040;2022-09-30T11:45:35;17.70;99.90
71367;DHT22;60030;52.274;8.040;2022-09-30T11:48:20;17.30;99.90
71367;DHT22;60030;52.274;8.040;2022-09-30T11:50:58;17.60;99.90
71367;DHT22;60030;52.274;8.040;2022-09-30T11:53:36;17.40;99.90
71367;DHT22;60030;52.274;8.040;2022-09-30T11:56:24;17.70;99.90
71367;DHT22;60030;52.274;8.040;2022-09-30T11:58:56;17.90;99.90
71367;DHT22;60030;52.274;8.040;2022-09-30T12:01:28;18.20;99.90
71367;DHT22;60030;52.274;8.040;2022-09-30T12:04:02;18.60;99.90
71367;DHT22;60030;52.274;8.040;2022-09-30T12:06:35;18.50;99.90
71367;DHT22;60030;52.274;8.040;2022-09-30T12:09:08;18.40;99.90
71367;DHT22;60030;52.274;8.040;2022-09-30T12:11:43;18.70;99.90
71367;DHT22;60030;52.274;8.040;2022-09-30T12:14:17;19.20;99.90
71367;DHT22;60030;52.274;8.040;2022-09-30T12:16:46;19.10;99.90
71367;DHT22;60030;52.274;8.040;2022-09-30T12:19:16;19.50;99.90
71367;DHT22;60030;52.274;8.040;2022-09-30T12:21:50;19.40;99.90
71367;DHT22;60030;52.274;8.040;2022-09-30T12:24:24;18.80;99.90
71367;DHT22;60030;52.274;8.040;2022-09-30T12:26:55;18.90;99.90
71367;DHT22;60030;52.274;8.040;2022-09-30T12:29:25;18.60;99.90
71367;DHT22;60030;52.274;8.040;2022-09-30T12:32:37;18.80;99.90
71367;DHT22;60030;52.274;8.040;2022-09-30T12:35:21;19.30;99.90
71367;DHT22;60030;52.274;8.040;2022-09-30T12:38:11;19.40;99.90
71367;DHT22;60030;52.274;8.040;2022-09-30T12:40:51;19.60;99.90
71367;DHT22;60030;52.274;8.040;2022-09-30T12:43:49;19.70;99.90
71367;DHT22;60030;52.274;8.040;2022-09-30T12:46:26;19.70;99.90
71367;DHT22;60030;52.274;8.040;2022-09-30T12:49:00;19.90;99.00
71367;DHT22;60030;52.274;8.040;2022-09-30T12:51:30;20.00;98.50
71367;DHT22;60030;52.274;8.040;2022-09-30T12:54:01;20.20;97.80
71367;DHT22;60030;52.274;8.040;2022-09-30T12:56:32;20.50;97.00
71367;DHT22;60030;52.274;8.040;2022-09-30T12:59:00;20.50;96.50
71367;DHT22;60030;52.274;8.040;2022-09-30T13:01:29;20.60;95.70
71367;DHT22;60030;52.274;8.040;2022-09-30T13:04:16;20.10;95.10
71367;DHT22;60030;52.274;8.040;2022-09-30T13:07:06;20.00;96.20
71367;DHT22;60030;52.274;8.040;2022-09-30T13:09:36;20.60;95.60
71367;DHT22;60030;52.274;8.040;2022-09-30T13:12:24;20.70;95.00
71367;DHT22;60030;52.274;8.040;2022-09-30T13:15:36;21.00;94.40
71367;DHT22;60030;52.274;8.040;2022-09-30T13:21:23;20.30;95.00
71367;DHT22;60030;52.274;8.040;2022-09-30T13:23:52;19.90;95.10
71367;DHT22;60030;52.274;8.040;2022-09-30T13:26:43;20.60;93.70
71367;DHT22;60030;52.274;8.040;2022-09-30T13:29:35;22.30;90.90
71367;DHT22;60030;52.274;8.040;2022-09-30T13:32:06;22.60;89.10
71367;DHT22;60030;52.274;8.040;2022-09-30T13:34:51;22.20;88.60
71367;DHT22;60030;52.274;8.040;2022-09-30T13:37:32;21.30;90.80
71367;DHT22;60030;52.274;8.040;2022-09-30T13:40:03;21.10;90.80
71367;DHT22;60030;52.274;8.040;2022-09-30T13:42:39;20.80;91.40
71367;DHT22;60030;52.274;8.040;2022-09-30T13:45:12;21.20;90.90
71367;DHT22;60030;52.274;8.040;2022-09-30T13:47:43;21.90;89.80
71367;DHT22;60030;52.274;8.040;2022-09-30T13:50:14;22.60;87.70
71367;DHT22;60030;52.274;8.040;2022-09-30T13:52:47;23.20;83.80
71367;DHT22;60030;52.274;8.040;2022-09-30T13:55:19;24.30;80.00
71367;DHT22;60030;52.274;8.040;2022-09-30T13:58:01;24.50;76.50
71367;DHT22;60030;52.274;8.040;2022-09-30T14:00:44;23.10;77.50
71367;DHT22;60030;52.274;8.040;2022-09-30T14:03:29;21.70;83.60
71367;DHT22;60030;52.274;8.040;2022-09-30T14:06:12;21.40;85.80
71367;DHT22;60030;52.274;8.040;2022-09-30T14:09:07;22.40;82.10
71367;DHT22;60030;52.274;8.040;2022-09-30T14:17:55;20.90;84.10
71367;DHT22;60030;52.274;8.040;2022-09-30T14:20:36;20.60;84.10
71367;DHT22;60030;52.274;8.040;2022-09-30T14:23:12;20.10;86.70
71367;DHT22;60030;52.274;8.040;2022-09-30T14:25:46;20.20;87.60
71367;DHT22;60030;52.274;8.040;2022-09-30T14:28:18;20.60;85.70
71367;DHT22;60030;52.274;8.040;2022-09-30T14:30:59;20.20;88.10
71367;DHT22;60030;52.274;8.040;2022-09-30T14:33:38;19.90;89.70
71367;DHT22;60030;52.274;8.040;2022-09-30T14:36:11;19.60;90.60
71367;DHT22;60030;52.274;8.040;2022-09-30T14:38:43;19.70;90.40
71367;DHT22;60030;52.274;8.040;2022-09-30T14:41:16;19.60;90.20
71367;DHT22;60030;52.274;8.040;2022-09-30T14:43:44;19.60;90.00
71367;DHT22;60030;52.274;8.040;2022-09-30T14:46:21;20.00;88.90
71367;DHT22;60030;52.274;8.040;2022-09-30T14:48:52;20.40;86.60
71367;DHT22;60030;52.274;8.040;2022-09-30T14:51:20;20.30;84.90
71367;DHT22;60030;52.274;8.040;2022-09-30T14:53:53;19.70;87.20
71367;DHT22;60030;52.274;8.040;2022-09-30T14:56:21;19.40;88.60
71367;DHT22;60030;52.274;8.040;2022-09-30T14:58:52;19.20;90.30
71367;DHT22;60030;52.274;8.040;2022-09-30T15:01:24;19.20;90.70
71367;DHT22;60030;52.274;8.040;2022-09-30T15:03:56;18.60;90.90
71367;DHT22;60030;52.274;8.040;2022-09-30T15:06:26;18.40;91.90
71367;DHT22;60030;52.274;8.040;2022-09-30T15:09:00;18.50;91.80
71367;DHT22;60030;52.274;8.040;2022-09-30T15:11:28;18.40;92.00
71367;DHT22;60030;52.274;8.040;2022-09-30T15:13:58;18.60;92.10
71367;DHT22;60030;52.274;8.040;2022-09-30T15:16:28;18.20;92.20
71367;DHT22;60030;52.274;8.040;2022-09-30T15:18:56;19.10;92.00
71367;DHT22;60030;52.274;8.040;2022-09-30T15:21:25;19.40;90.90
71367;DHT22;60030;52.274;8.040;2022-09-30T15:23:55;18.80;91.30
71367;DHT22;60030;52.274;8.040;2022-09-30T15:26:24;18.80;91.30
71367;DHT22;60030;52.274;8.040;2022-09-30T15:28:51;18.70;91.20
71367;DHT22;60030;52.274;8.040;2022-09-30T15:31:22;18.60;91.30
71367;DHT22;60030;52.274;8.040;2022-09-30T15:34:02;18.40;91.60
71367;DHT22;60030;52.274;8.040;2022-09-30T15:36:29;18.30;92.50
71367;DHT22;60030;52.274;8.040;2022-09-30T15:38:56;18.40;93.00
71367;DHT22;60030;52.274;8.040;2022-09-30T15:41:24;18.30;92.90
71367;DHT22;60030;52.274;8.040;2022-09-30T15:43:52;18.20;93.30
71367;DHT22;60030;52.274;8.040;2022-09-30T15:46:29;17.90;93.00
71367;DHT22;60030;52.274;8.040;2022-09-30T15:49:02;17.80;93.60
71367;DHT22;60030;52.274;8.040;2022-09-30T15:51:36;17.90;93.80
71367;DHT22;60030;52.274;8.040;2022-09-30T15:54:29;17.90;94.00
71367;DHT22;60030;52.274;8.040;2022-09-30T15:56:59;17.70;93.60
71367;DHT22;60030;52.274;8.040;2022-09-30T15:59:56;17.70;93.90
71367;DHT22;60030;52.274;8.040;2022-09-30T16:02:24;17.70;93.80
71367;DHT22;60030;52.274;8.040;2022-09-30T16:04:53;17.50;94.40
71367;DHT22;60030;52.274;8.040;2022-09-30T16:07:21;17.70;94.70
71367;DHT22;60030;52.274;8.040;2022-09-30T16:09:51;17.60;95.00
71367;DHT22;60030;52.274;8.040;2022-09-30T16:12:21;17.60;95.20
71367;DHT22;60030;52.274;8.040;2022-09-30T16:14:52;17.60;95.10
71367;DHT22;60030;52.274;8.040;2022-09-30T16:17:22;17.60;95.00
71367;DHT22;60030;52.274;8.040;2022-09-30T16:19:51;17.60;95.00
71367;DHT22;60030;52.274;8.040;2022-09-30T16:22:48;17.60;95.00
71367;DHT22;60030;52.274;8.040;2022-09-30T16:25:20;17.50;95.00